createdAt,value
2023-03-07T00:00:16.963Z,-2.10
2023-03-07T00:03:07.781Z,-1.90
2023-03-07T00:06:03.685Z,-2.20
2023-03-07T00:08:54.281Z,-2.20
2023-03-07T00:11:44.970Z,-2.30
2023-03-07T00:14:36.673Z,-2.10
2023-03-07T00:17:26.137Z,-2.30
2023-03-07T00:20:16.283Z,-2.40
2023-03-07T00:23:05.959Z,-2.40
2023-03-07T00:26:03.087Z,-2.10
2023-03-07T00:28:54.467Z,-2.50
2023-03-07T00:31:45.574Z,-2.30
2023-03-07T00:34:35.489Z,-2.50
2023-03-07T00:37:25.491Z,-2.30
2023-03-07T00:40:16.196Z,-2.30
2023-03-07T00:43:05.743Z,-2.80
2023-03-07T00:45:55.619Z,-2.40
2023-03-07T00:48:47.150Z,-2.40
2023-03-07T00:51:36.785Z,-2.30
2023-03-07T00:54:26.740Z,-2.50
2023-03-07T00:57:16.354Z,-2.60
2023-03-07T01:00:07.174Z,-2.70
2023-03-07T01:02:58.299Z,-2.90
2023-03-07T01:05:50.055Z,-3.10
2023-03-07T01:08:39.957Z,-3.10
2023-03-07T01:11:30.480Z,-3.20
2023-03-07T01:14:20.395Z,-3.30
2023-03-07T01:17:09.905Z,-3.30
2023-03-07T01:19:59.706Z,-3.50
2023-03-07T01:22:51.195Z,-3.50
2023-03-07T01:25:42.095Z,-3.50
2023-03-07T01:28:31.883Z,-3.80
2023-03-07T01:31:22.024Z,-3.70
2023-03-07T01:34:11.929Z,-3.80
2023-03-07T01:37:01.614Z,-3.70
2023-03-07T01:39:55.073Z,-3.90
2023-03-07T01:42:44.794Z,-4.00
2023-03-07T01:46:27.185Z,-4.10
2023-03-07T01:49:30.619Z,-4.20
2023-03-07T01:52:25.059Z,-4.30
2023-03-07T01:55:18.493Z,-4.20
2023-03-07T01:58:10.383Z,-4.20
2023-03-07T02:01:00.713Z,-4.10
2023-03-07T02:03:55.622Z,-4.40
2023-03-07T02:06:45.490Z,-4.40
2023-03-07T02:09:37.090Z,-4.20
2023-03-07T02:12:28.962Z,-4.20
2023-03-07T02:15:18.722Z,-4.10
2023-03-07T02:18:09.342Z,-4.10
2023-03-07T02:21:10.012Z,-4.20
2023-03-07T02:24:06.664Z,-4.20
2023-03-07T02:26:58.749Z,-4.10
2023-03-07T02:29:48.462Z,-4.20
2023-03-07T02:32:38.256Z,-4.40
2023-03-07T02:35:28.187Z,-4.40
2023-03-07T02:38:17.802Z,-4.40
2023-03-07T02:41:07.745Z,-4.40
2023-03-07T02:43:58.677Z,-4.60
2023-03-07T02:46:48.545Z,-4.50
2023-03-07T02:49:38.404Z,-4.40
2023-03-07T02:52:28.985Z,-4.50
2023-03-07T02:55:18.964Z,-4.70
2023-03-07T02:58:08.599Z,-4.50
2023-03-07T03:00:59.712Z,-4.50
2023-03-07T03:03:49.066Z,-4.60
2023-03-07T03:06:38.969Z,-4.70
2023-03-07T03:09:28.907Z,-4.60
2023-03-07T03:12:19.555Z,-4.50
2023-03-07T03:15:10.671Z,-4.60
2023-03-07T03:18:01.699Z,-4.80
2023-03-07T03:20:51.780Z,-4.60
2023-03-07T03:23:41.957Z,-4.70
2023-03-07T03:26:31.494Z,-4.70
2023-03-07T03:29:21.712Z,-4.60
2023-03-07T03:32:11.649Z,-4.60
2023-03-07T03:35:02.550Z,-4.60
2023-03-07T03:37:52.354Z,-4.60
2023-03-07T03:40:42.256Z,-4.70
2023-03-07T03:43:31.811Z,-4.70
2023-03-07T03:46:21.610Z,-4.90
2023-03-07T03:49:14.530Z,-4.60
2023-03-07T03:52:06.237Z,-4.60
2023-03-07T03:54:56.195Z,-4.50
2023-03-07T03:57:46.118Z,-4.20
2023-03-07T04:00:35.797Z,-4.00
2023-03-07T04:03:25.509Z,-4.00
2023-03-07T04:06:16.797Z,-3.70
2023-03-07T04:09:07.810Z,-3.60
2023-03-07T04:11:57.532Z,-3.70
2023-03-07T04:14:47.107Z,-3.70
2023-03-07T04:17:37.389Z,-3.80
2023-03-07T04:20:26.828Z,-3.70
2023-03-07T04:23:16.586Z,-3.90
2023-03-07T04:26:10.243Z,-4.00
2023-03-07T04:28:59.937Z,-4.10
2023-03-07T04:31:49.591Z,-4.20
2023-03-07T04:34:39.638Z,-4.30
2023-03-07T04:37:29.889Z,-4.40
2023-03-07T04:40:19.990Z,-4.40
2023-03-07T04:43:10.928Z,-4.50
2023-03-07T04:46:01.092Z,-4.50
2023-03-07T04:48:50.886Z,-4.70
2023-03-07T04:51:42.481Z,-4.70
2023-03-07T04:54:33.472Z,-4.70
2023-03-07T04:57:23.007Z,-4.70
2023-03-07T05:00:16.005Z,-4.70
2023-03-07T05:03:05.552Z,-4.90
2023-03-07T05:05:56.036Z,-4.90
2023-03-07T05:08:45.707Z,-4.80
2023-03-07T05:11:35.306Z,-4.90
2023-03-07T05:14:25.188Z,-5.00
2023-03-07T05:17:17.191Z,-4.90
2023-03-07T05:20:10.791Z,-4.80
2023-03-07T05:23:00.826Z,-4.80
2023-03-07T05:25:51.041Z,-4.90
2023-03-07T05:28:40.864Z,-4.90
2023-03-07T05:31:30.963Z,-4.70
2023-03-07T05:34:22.287Z,-4.80
2023-03-07T05:37:12.591Z,-4.80
2023-03-07T05:40:02.134Z,-4.60
2023-03-07T05:42:52.150Z,-4.70
2023-03-07T05:45:41.794Z,-4.60
2023-03-07T05:48:31.332Z,-4.50
2023-03-07T05:51:22.448Z,-4.50
2023-03-07T05:54:12.488Z,-4.50
2023-03-07T05:57:02.303Z,-4.60
2023-03-07T05:59:52.391Z,-4.40
2023-03-07T06:02:41.954Z,-4.30
2023-03-07T06:05:31.830Z,-4.00
2023-03-07T06:08:23.067Z,-4.00
2023-03-07T06:11:13.216Z,-4.10
2023-03-07T06:14:02.794Z,-3.60
2023-03-07T06:16:52.590Z,-3.20
2023-03-07T06:19:42.133Z,-3.00
2023-03-07T06:22:32.611Z,-2.60
2023-03-07T06:25:23.950Z,-2.70
2023-03-07T06:28:14.074Z,-2.10
2023-03-07T06:31:03.708Z,-1.90
2023-03-07T06:33:56.586Z,-1.60
2023-03-07T06:36:48.940Z,-1.40
2023-03-07T06:39:38.863Z,-1.30
2023-03-07T06:42:29.939Z,-1.00
2023-03-07T06:45:19.996Z,-0.90
2023-03-07T06:48:09.619Z,-0.70
2023-03-07T06:50:59.605Z,-0.70
2023-03-07T06:53:49.387Z,-0.40
2023-03-07T06:56:39.589Z,-0.20
2023-03-07T06:59:30.666Z,-0.10
2023-03-07T07:02:20.412Z,-0.10
2023-03-07T07:05:11.348Z,0.00
2023-03-07T07:08:01.115Z,0.20
2023-03-07T07:10:50.728Z,0.30
2023-03-07T07:13:40.529Z,0.50
2023-03-07T07:16:34.038Z,0.70
2023-03-07T07:19:23.856Z,0.80
2023-03-07T07:22:13.749Z,0.90
2023-03-07T07:25:03.307Z,1.10
2023-03-07T07:27:52.819Z,1.30
2023-03-07T07:30:42.828Z,1.40
2023-03-07T07:33:34.035Z,1.40
2023-03-07T07:36:24.789Z,1.60
2023-03-07T07:39:15.808Z,1.40
2023-03-07T07:42:06.044Z,1.60
2023-03-07T07:44:55.592Z,1.50
2023-03-07T07:47:45.813Z,1.60
2023-03-07T07:50:37.212Z,1.50
2023-03-07T07:53:27.420Z,1.70
2023-03-07T07:56:17.004Z,1.70
2023-03-07T07:59:07.462Z,1.80
2023-03-07T08:01:57.318Z,1.90
2023-03-07T08:04:47.810Z,2.00
2023-03-07T08:07:39.667Z,2.20
2023-03-07T08:10:29.303Z,2.60
2023-03-07T08:13:19.936Z,2.90
2023-03-07T08:16:15.488Z,3.00
2023-03-07T08:19:05.464Z,3.00
2023-03-07T08:21:55.096Z,3.00
2023-03-07T08:24:46.626Z,2.90
2023-03-07T08:27:36.778Z,2.90
2023-03-07T08:30:27.799Z,3.00
2023-03-07T08:33:17.399Z,2.90
2023-03-07T08:36:07.839Z,3.20
2023-03-07T08:38:57.564Z,2.90
2023-03-07T08:41:48.987Z,3.00
2023-03-07T08:44:39.779Z,3.30
2023-03-07T08:47:29.798Z,3.20
2023-03-07T08:50:19.734Z,2.80
2023-03-07T08:53:09.190Z,2.40
2023-03-07T08:55:59.098Z,2.50
2023-03-07T08:58:50.297Z,2.40
2023-03-07T09:01:41.287Z,2.10
2023-03-07T09:04:31.038Z,1.80
2023-03-07T09:07:21.274Z,1.70
2023-03-07T09:10:12.536Z,1.90
2023-03-07T09:13:02.200Z,2.20
2023-03-07T09:15:54.267Z,2.50
2023-03-07T09:18:46.907Z,2.70
2023-03-07T09:21:42.278Z,2.70
2023-03-07T09:24:39.378Z,2.70
2023-03-07T09:27:34.405Z,2.30
2023-03-07T09:30:34.219Z,2.30
2023-03-07T09:33:34.487Z,2.30
2023-03-07T09:36:32.969Z,2.20
2023-03-07T09:39:22.519Z,2.10
2023-03-07T09:42:24.326Z,2.00
2023-03-07T09:45:26.163Z,2.00
2023-03-07T09:48:36.287Z,2.30
2023-03-07T09:51:28.099Z,2.30
2023-03-07T09:54:20.507Z,2.40
2023-03-07T09:57:17.806Z,2.40
2023-03-07T10:00:19.578Z,2.50
2023-03-07T10:03:21.432Z,2.70
2023-03-07T10:06:18.280Z,2.80
2023-03-07T10:09:10.170Z,2.90
2023-03-07T10:12:27.843Z,3.10
2023-03-07T10:15:39.508Z,2.90
2023-03-07T10:18:52.626Z,2.80
2023-03-07T10:21:53.072Z,2.90
2023-03-07T10:25:04.696Z,2.90
2023-03-07T10:28:00.965Z,2.80
2023-03-07T10:30:52.696Z,2.90
2023-03-07T10:33:45.352Z,3.00
2023-03-07T10:36:40.350Z,3.00
2023-03-07T10:39:37.270Z,3.10
2023-03-07T10:42:29.390Z,2.90
2023-03-07T10:45:19.597Z,2.80
2023-03-07T10:48:17.187Z,2.90
2023-03-07T10:51:14.363Z,3.00
2023-03-07T10:54:04.810Z,2.80
2023-03-07T10:57:11.338Z,2.90
2023-03-07T11:00:17.563Z,3.00
2023-03-07T11:03:21.548Z,3.00
2023-03-07T11:06:31.032Z,2.90
2023-03-07T11:09:25.852Z,2.80
2023-03-07T11:12:22.476Z,2.80
2023-03-07T11:15:13.826Z,2.60
2023-03-07T11:18:03.385Z,2.70
2023-03-07T11:20:53.957Z,2.80
2023-03-07T11:23:43.896Z,3.10
2023-03-07T11:26:35.618Z,3.10
2023-03-07T11:29:29.166Z,3.40
2023-03-07T11:32:25.159Z,3.40
2023-03-07T11:35:20.913Z,3.70
2023-03-07T11:38:18.309Z,3.70
2023-03-07T11:41:13.689Z,3.50
2023-03-07T11:44:20.048Z,3.20
2023-03-07T11:47:44.692Z,3.00
2023-03-07T11:50:36.073Z,3.10
2023-03-07T11:53:59.127Z,3.30
2023-03-07T11:56:55.233Z,3.40
2023-03-07T12:00:16.482Z,3.50
2023-03-07T12:03:28.680Z,3.60
2023-03-07T12:06:30.716Z,3.40
2023-03-07T12:09:32.054Z,3.40
2023-03-07T12:12:40.250Z,3.60
2023-03-07T12:15:37.712Z,3.50
2023-03-07T12:18:44.795Z,3.40
2023-03-07T12:22:03.644Z,3.80
2023-03-07T12:25:06.690Z,3.80
2023-03-07T12:28:07.820Z,3.80
2023-03-07T12:31:09.721Z,4.00
2023-03-07T12:34:09.119Z,4.10
2023-03-07T12:37:04.516Z,4.00
2023-03-07T12:39:57.860Z,4.20
2023-03-07T12:42:56.028Z,4.40
2023-03-07T12:45:50.343Z,4.30
2023-03-07T12:48:45.313Z,4.60
2023-03-07T12:51:41.934Z,4.60
2023-03-07T12:54:36.143Z,4.60
2023-03-07T12:57:32.562Z,4.80
2023-03-07T13:00:24.736Z,4.70
2023-03-07T13:03:20.465Z,4.90
2023-03-07T13:06:17.851Z,4.70
2023-03-07T13:09:12.631Z,5.10
2023-03-07T13:12:39.655Z,5.10
2023-03-07T13:16:06.390Z,5.00
2023-03-07T13:18:56.329Z,4.70
2023-03-07T13:21:46.436Z,4.70
2023-03-07T13:24:40.644Z,4.60
2023-03-07T13:27:43.786Z,4.50
2023-03-07T13:30:34.665Z,4.50
2023-03-07T13:33:30.431Z,4.60
2023-03-07T13:36:38.557Z,4.60
2023-03-07T13:39:40.593Z,4.40
2023-03-07T13:42:49.704Z,4.30
2023-03-07T13:45:53.364Z,4.40
2023-03-07T13:49:04.299Z,4.20
2023-03-07T13:52:35.290Z,4.10
2023-03-07T13:55:29.647Z,4.00
2023-03-07T13:58:26.002Z,4.10
2023-03-07T14:01:19.081Z,4.00
2023-03-07T14:04:15.846Z,4.00
2023-03-07T14:07:13.802Z,4.20
2023-03-07T14:10:21.925Z,4.30
2023-03-07T14:13:51.367Z,4.60
2023-03-07T14:16:52.833Z,4.80
2023-03-07T14:19:55.886Z,4.80
2023-03-07T14:22:58.129Z,4.60
2023-03-07T14:25:52.487Z,4.50
2023-03-07T14:28:50.692Z,4.10
2023-03-07T14:31:42.821Z,3.90
2023-03-07T14:34:46.657Z,3.80
2023-03-07T14:37:36.136Z,3.70
2023-03-07T14:40:34.314Z,3.60
2023-03-07T14:43:36.509Z,3.40
2023-03-07T14:46:36.845Z,3.20
2023-03-07T14:49:38.194Z,3.30
2023-03-07T14:52:31.557Z,3.30
2023-03-07T14:55:23.496Z,3.30
2023-03-07T14:58:19.290Z,3.30
2023-03-07T15:01:16.671Z,3.20
2023-03-07T15:04:22.946Z,3.20
2023-03-07T15:07:23.930Z,3.20
2023-03-07T15:10:16.949Z,3.20
2023-03-07T15:13:12.280Z,3.10
2023-03-07T15:16:06.574Z,3.00
2023-03-07T15:19:00.286Z,3.00
2023-03-07T15:21:54.035Z,3.00
2023-03-07T15:24:50.471Z,3.00
2023-03-07T15:27:40.573Z,3.00
2023-03-07T15:30:36.080Z,3.00
2023-03-07T15:33:28.650Z,3.00
2023-03-07T15:36:21.480Z,3.00
2023-03-07T15:39:35.259Z,3.00
2023-03-07T15:42:27.077Z,3.00
2023-03-07T15:45:30.570Z,3.00
2023-03-07T15:48:27.794Z,2.90
2023-03-07T15:51:19.114Z,2.90
2023-03-07T15:54:24.119Z,2.90
2023-03-07T15:57:22.673Z,2.90
2023-03-07T16:00:21.596Z,3.00
2023-03-07T16:03:25.800Z,2.90
2023-03-07T16:06:37.292Z,2.90
2023-03-07T16:09:27.827Z,2.90
2023-03-07T16:12:19.798Z,2.90
2023-03-07T16:15:15.157Z,2.80
2023-03-07T16:18:08.532Z,2.80
2023-03-07T16:20:58.979Z,2.80
2023-03-07T16:23:51.253Z,2.80
2023-03-07T16:26:43.318Z,2.90
2023-03-07T16:29:33.114Z,2.90
2023-03-07T16:32:24.509Z,2.90
2023-03-07T16:35:24.059Z,2.90
2023-03-07T16:38:14.117Z,2.90
2023-03-07T16:41:07.001Z,2.90
2023-03-07T16:43:58.176Z,2.90
2023-03-07T16:46:53.594Z,2.90
2023-03-07T16:49:44.446Z,3.10
2023-03-07T16:52:36.009Z,3.10
2023-03-07T17:22:00.213Z,3.10
2023-03-07T17:24:57.067Z,3.40
2023-03-07T17:27:51.118Z,3.50
2023-03-07T17:30:51.775Z,3.40
2023-03-07T17:33:41.976Z,3.50
2023-03-07T17:36:40.821Z,3.60
2023-03-07T17:39:35.102Z,3.50
2023-03-07T17:42:33.925Z,3.60
2023-03-07T17:45:30.828Z,3.60
2023-03-07T17:48:28.959Z,3.60
2023-03-07T17:51:26.921Z,3.60
2023-03-07T17:54:24.122Z,3.50
2023-03-07T17:57:27.651Z,3.50
2023-03-07T18:00:20.649Z,3.40
2023-03-07T18:03:21.118Z,3.20
2023-03-07T18:06:13.587Z,3.30
2023-03-07T18:09:11.601Z,3.30
2023-03-07T18:12:10.048Z,3.30
2023-03-07T18:15:05.538Z,3.20
2023-03-07T18:18:04.019Z,3.20
2023-03-07T18:21:13.656Z,3.20
2023-03-07T18:24:04.765Z,3.20
2023-03-07T18:27:05.177Z,3.20
2023-03-07T18:29:57.322Z,3.20
2023-03-07T18:32:57.114Z,3.10
2023-03-07T18:35:47.804Z,3.10
2023-03-07T18:38:45.074Z,3.00
2023-03-07T18:41:36.327Z,3.10
2023-03-07T18:44:36.170Z,3.10
2023-03-07T18:47:33.182Z,3.10
2023-03-07T18:50:26.247Z,3.00
2023-03-07T18:53:25.145Z,3.00
2023-03-07T18:56:25.580Z,3.00
2023-03-07T18:59:16.670Z,2.90
2023-03-07T19:02:15.388Z,2.90
2023-03-07T19:05:12.985Z,2.90
2023-03-07T19:08:09.451Z,3.00
2023-03-07T19:11:10.193Z,2.90
2023-03-07T19:14:07.334Z,2.90
2023-03-07T19:17:01.104Z,2.90
2023-03-07T19:20:04.060Z,2.80
2023-03-07T19:23:06.009Z,2.80
2023-03-07T19:26:12.240Z,2.80
2023-03-07T19:29:10.837Z,2.80
2023-03-07T19:32:10.394Z,2.80
2023-03-07T19:35:08.269Z,2.70
2023-03-07T19:38:06.353Z,2.70
2023-03-07T19:41:00.228Z,2.80
2023-03-07T19:43:59.229Z,2.60
2023-03-07T19:46:50.885Z,2.60
2023-03-07T19:49:48.332Z,2.60
2023-03-07T19:52:41.761Z,2.60
2023-03-07T19:55:40.283Z,2.50
2023-03-07T19:58:43.247Z,2.50
2023-03-07T20:01:48.775Z,2.50
2023-03-07T20:04:54.628Z,2.50
2023-03-07T20:07:54.419Z,2.10
2023-03-07T20:11:08.842Z,2.40
2023-03-07T20:14:15.458Z,2.40
2023-03-07T20:17:06.802Z,2.40
2023-03-07T20:20:06.241Z,2.30
2023-03-07T20:23:12.402Z,2.30
2023-03-07T20:26:08.354Z,2.40
2023-03-07T20:29:11.929Z,2.30
2023-03-07T20:32:03.607Z,2.30
2023-03-07T20:35:03.457Z,2.30
2023-03-07T20:37:54.894Z,2.40
2023-03-07T20:40:57.363Z,2.40
2023-03-07T20:43:55.444Z,2.50
2023-03-07T20:46:55.358Z,2.50
2023-03-07T20:49:53.209Z,2.60
2023-03-07T20:52:45.022Z,2.60
2023-03-07T20:55:43.522Z,2.60
2023-03-07T20:58:44.387Z,2.60
2023-03-07T21:01:44.395Z,2.60
2023-03-07T21:04:43.508Z,2.60
2023-03-07T21:07:34.272Z,2.70
2023-03-07T21:10:31.412Z,2.70
2023-03-07T21:13:31.373Z,2.70
2023-03-07T21:16:31.949Z,2.80
2023-03-07T21:19:30.314Z,2.80
2023-03-07T21:22:36.443Z,2.90
2023-03-07T21:25:26.904Z,2.90
2023-03-07T21:28:27.558Z,2.90
2023-03-07T21:31:20.570Z,3.00
2023-03-07T21:34:21.852Z,3.00
2023-03-07T21:37:12.307Z,3.10
2023-03-07T21:40:13.149Z,3.10
2023-03-07T21:43:10.884Z,3.10
2023-03-07T21:46:03.130Z,3.20
2023-03-07T21:49:00.978Z,3.30
2023-03-07T21:51:56.750Z,3.30
2023-03-07T21:54:47.724Z,3.30
2023-03-07T21:57:46.297Z,3.30
2023-03-07T22:00:35.998Z,3.40
2023-03-07T22:03:33.865Z,3.50
2023-03-07T22:06:24.291Z,3.50
2023-03-07T22:09:20.794Z,3.50
2023-03-07T22:12:10.423Z,3.60
2023-03-07T22:15:07.863Z,3.60
2023-03-07T22:18:04.885Z,3.60
2023-03-07T22:21:08.932Z,3.40
2023-03-07T22:24:01.386Z,3.10
2023-03-07T22:26:57.803Z,2.80
2023-03-07T22:29:47.554Z,2.70
2023-03-07T22:32:44.817Z,2.60
2023-03-07T22:35:40.881Z,2.50
2023-03-07T22:38:31.284Z,2.60
2023-03-07T22:41:27.890Z,2.60
2023-03-07T22:44:18.681Z,2.50
2023-03-07T22:47:14.832Z,2.40
2023-03-07T22:50:06.417Z,2.30
2023-03-07T22:53:02.811Z,2.30
2023-03-07T22:55:52.438Z,2.20
2023-03-07T22:58:48.830Z,2.20
2023-03-07T23:01:44.796Z,2.20
2023-03-07T23:04:34.417Z,2.20
2023-03-07T23:07:32.762Z,2.10
2023-03-07T23:10:28.920Z,2.20
2023-03-07T23:13:18.487Z,2.10
2023-03-07T23:16:16.813Z,2.10
2023-03-07T23:19:12.842Z,2.10
2023-03-07T23:22:09.366Z,2.10
2023-03-07T23:25:06.820Z,2.10
2023-03-07T23:28:02.937Z,2.10
2023-03-07T23:30:52.433Z,2.10
2023-03-07T23:33:48.909Z,2.10
2023-03-07T23:36:44.943Z,2.00
2023-03-07T23:39:40.859Z,2.00
2023-03-07T23:42:38.790Z,2.00
2023-03-07T23:45:28.353Z,2.00
2023-03-07T23:48:24.942Z,2.00
2023-03-07T23:51:21.858Z,1.90
2023-03-07T23:54:11.503Z,1.90
2023-03-07T23:57:08.805Z,1.80
